Time,TemperatureF,DewpointF,PressureIn,WindDirection,WindDirectionDegrees,WindSpeedMPH,WindSpeedGustMPH,Humidity,HourlyPrecipIn,Conditions,Clouds,dailyrainin,SoftwareType,DateUTC
2013-01-10 00:04:00,42.4,34.4,30.05,South,180,0.0,0.4,73,0.00,,,0.00,WUHU216HW,2013-01-10 08:04:00,
2013-01-10 00:09:00,42.4,34.4,30.05,South,180,0.0,0.0,73,0.00,,,0.00,WUHU216HW,2013-01-10 08:09:00,
2013-01-10 00:14:00,42.4,34.4,30.05,SSE,158,0.0,0.0,73,0.00,,,0.00,WUHU216HW,2013-01-10 08:14:00,
2013-01-10 00:19:00,42.0,34.0,30.05,South,180,0.0,0.0,73,0.00,,,0.00,WUHU216HW,2013-01-10 08:19:00,
2013-01-10 00:24:00,42.0,34.3,30.05,SSW,203,0.0,0.0,74,0.00,,,0.00,WUHU216HW,2013-01-10 08:24:00,
2013-01-10 00:29:00,42.0,34.0,30.05,SW,225,0.0,0.0,73,0.00,,,0.00,WUHU216HW,2013-01-10 08:29:00,
2013-01-10 00:34:00,42.0,34.0,30.05,West,270,0.0,0.0,73,0.00,,,0.00,WUHU216HW,2013-01-10 08:34:00,
2013-01-10 00:40:00,42.0,34.3,30.05,WNW,293,0.0,0.0,74,0.00,,,0.00,WUHU216HW,2013-01-10 08:40:00,
2013-01-10 00:45:00,42.0,34.3,30.05,West,270,0.0,0.0,74,0.00,,,0.00,WUHU216HW,2013-01-10 08:45:00,
2013-01-10 00:50:00,42.0,34.3,30.05,West,270,0.0,0.0,74,0.00,,,0.00,WUHU216HW,2013-01-10 08:50:00,
2013-01-10 00:55:00,42.0,34.3,30.05,West,270,0.0,0.0,74,0.00,,,0.00,WUHU216HW,2013-01-10 08:55:00,
2013-01-10 01:00:00,42.0,34.0,30.05,WNW,293,0.0,0.0,73,0.00,,,0.00,WUHU216HW,2013-01-10 09:00:00,
2013-01-10 01:05:00,41.9,33.8,30.05,NNW,338,0.0,0.0,73,0.00,,,0.00,WUHU216HW,2013-01-10 09:05:00,
2013-01-10 01:10:00,41.9,33.8,30.05,West,270,0.0,0.0,73,0.00,,,0.00,WUHU216HW,2013-01-10 09:10:00,
2013-01-10 01:15:00,41.9,33.8,30.05,WSW,248,0.0,0.0,73,0.00,,,0.00,WUHU216HW,2013-01-10 09:15:00,
2013-01-10 01:20:00,41.7,33.6,30.05,ESE,113,0.0,0.0,73,0.00,,,0.00,WUHU216HW,2013-01-10 09:20:00,
2013-01-10 01:25:00,41.5,33.5,30.06,South,180,0.0,0.0,73,0.00,,,0.00,WUHU216HW,2013-01-10 09:25:00,
2013-01-10 01:31:00,41.5,33.5,30.06,South,180,0.0,0.0,73,0.00,,,0.00,WUHU216HW,2013-01-10 09:31:00,
2013-01-10 01:36:00,41.5,33.5,30.06,WSW,248,0.0,0.0,73,0.00,,,0.00,WUHU216HW,2013-01-10 09:36:00,
2013-01-10 01:41:00,41.5,33.5,30.06,SSW,203,0.0,0.0,73,0.00,,,0.00,WUHU216HW,2013-01-10 09:41:00,
2013-01-10 01:46:00,41.3,33.3,30.05,SW,225,0.0,0.0,73,0.00,,,0.00,WUHU216HW,2013-01-10 09:46:00,
2013-01-10 01:51:00,41.3,33.3,30.06,WSW,248,0.0,0.0,73,0.00,,,0.00,WUHU216HW,2013-01-10 09:51:00,
2013-01-10 01:56:00,41.3,33.3,30.06,WSW,248,0.0,0.0,73,0.00,,,0.00,WUHU216HW,2013-01-10 09:56:00,
2013-01-10 02:01:00,41.1,33.1,30.05,WSW,248,0.0,0.0,73,0.00,,,0.00,WUHU216HW,2013-01-10 10:01:00,
2013-01-10 02:06:00,41.1,33.1,30.06,WSW,248,0.0,0.0,73,0.00,,,0.00,WUHU216HW,2013-01-10 10:06:00,
2013-01-10 02:11:00,41.1,33.1,30.06,WSW,248,0.0,0.0,73,0.00,,,0.00,WUHU216HW,2013-01-10 10:11:00,
2013-01-10 02:16:00,41.0,32.9,30.06,WSW,248,0.0,0.0,73,0.00,,,0.00,WUHU216HW,2013-01-10 10:16:00,
2013-01-10 02:21:00,40.8,32.7,30.05,SW,225,0.0,0.0,73,0.00,,,0.00,WUHU216HW,2013-01-10 10:21:00,
2013-01-10 02:26:00,40.8,32.7,30.06,SSE,158,0.0,0.0,73,0.00,,,0.00,WUHU216HW,2013-01-10 10:26:00,
2013-01-10 02:31:00,40.6,32.6,30.05,SSE,158,0.0,0.0,73,0.00,,,0.00,WUHU216HW,2013-01-10 10:31:00,
2013-01-10 02:36:00,40.6,32.6,30.06,South,180,0.0,0.0,73,0.00,,,0.00,WUHU216HW,2013-01-10 10:36:00,
2013-01-10 02:42:00,40.6,32.9,30.06,South,180,0.0,0.0,74,0.00,,,0.00,WUHU216HW,2013-01-10 10:42:00,
2013-01-10 02:47:00,40.6,32.9,30.05,South,180,0.0,0.0,74,0.00,,,0.00,WUHU216HW,2013-01-10 10:47:00,
2013-01-10 02:52:00,40.6,32.9,30.06,South,180,0.0,0.0,74,0.00,,,0.00,WUHU216HW,2013-01-10 10:52:00,
2013-01-10 02:57:00,40.6,32.9,30.06,South,180,0.0,0.0,74,0.00,,,0.00,WUHU216HW,2013-01-10 10:57:00,
2013-01-10 03:02:00,40.4,32.7,30.06,South,180,0.0,0.0,74,0.00,,,0.00,WUHU216HW,2013-01-10 11:02:00,
2013-01-10 03:07:00,40.2,32.5,30.06,South,180,0.0,0.0,74,0.00,,,0.00,WUHU216HW,2013-01-10 11:07:00,
2013-01-10 03:12:00,40.2,32.5,30.05,South,180,0.0,0.0,74,0.00,,,0.00,WUHU216HW,2013-01-10 11:12:00,
2013-01-10 03:17:00,40.1,32.4,30.06,South,180,0.0,0.0,74,0.00,,,0.00,WUHU216HW,2013-01-10 11:17:00,
2013-01-10 03:22:00,40.1,32.4,30.06,South,180,0.0,0.0,74,0.00,,,0.00,WUHU216HW,2013-01-10 11:22:00,
2013-01-10 03:27:00,39.9,32.2,30.06,South,180,0.0,0.0,74,0.00,,,0.00,WUHU216HW,2013-01-10 11:27:00,
2013-01-10 03:32:00,39.9,32.2,30.06,SSW,203,0.0,0.0,74,0.00,,,0.00,WUHU216HW,2013-01-10 11:32:00,
2013-01-10 03:37:00,39.9,32.2,30.06,SSW,203,0.0,0.0,74,0.00,,,0.00,WUHU216HW,2013-01-10 11:37:00,
2013-01-10 03:42:00,39.9,32.5,30.06,SSW,203,0.0,0.0,75,0.00,,,0.00,WUHU216HW,2013-01-10 11:42:00,
2013-01-10 03:47:00,39.9,32.5,30.06,SSW,203,0.0,0.0,75,0.00,,,0.00,WUHU216HW,2013-01-10 11:47:00,
2013-01-10 03:52:00,40.1,32.7,30.06,SSW,203,0.0,0.0,75,0.00,,,0.00,WUHU216HW,2013-01-10 11:52:00,
2013-01-10 03:58:00,40.1,32.7,30.06,SSW,203,0.0,0.0,75,0.00,,,0.00,WUHU216HW,2013-01-10 11:58:00,
2013-01-10 04:03:00,40.1,32.7,30.06,SSW,203,0.0,0.0,75,0.00,,,0.00,WUHU216HW,2013-01-10 12:03:00,
2013-01-10 04:08:00,40.1,32.7,30.06,SSW,203,0.0,0.0,75,0.00,,,0.00,WUHU216HW,2013-01-10 12:08:00,
2013-01-10 04:13:00,40.1,32.7,30.06,SSW,203,0.0,0.0,75,0.00,,,0.00,WUHU216HW,2013-01-10 12:13:00,
2013-01-10 04:18:00,40.1,32.7,30.06,SSW,203,0.0,0.0,75,0.00,,,0.00,WUHU216HW,2013-01-10 12:18:00,
2013-01-10 04:23:00,40.1,32.7,30.06,SSW,203,0.0,0.0,75,0.00,,,0.00,WUHU216HW,2013-01-10 12:23:00,
2013-01-10 04:28:00,40.2,33.2,30.06,SSW,203,0.0,0.0,76,0.00,,,0.00,WUHU216HW,2013-01-10 12:28:00,
2013-01-10 04:33:00,40.2,33.2,30.06,SSW,203,0.0,0.0,76,0.00,,,0.00,WUHU216HW,2013-01-10 12:33:00,
2013-01-10 04:38:00,40.1,33.0,30.05,SSW,203,0.0,0.0,76,0.00,,,0.00,WUHU216HW,2013-01-10 12:38:00,
2013-01-10 04:43:00,40.1,33.0,30.05,SSW,203,0.0,0.0,76,0.00,,,0.00,WUHU216HW,2013-01-10 12:43:00,
2013-01-10 04:48:00,40.1,33.0,30.05,SSW,203,0.0,0.0,76,0.00,,,0.00,WUHU216HW,2013-01-10 12:48:00,
2013-01-10 04:53:00,40.1,33.0,30.05,SSW,203,0.0,0.0,76,0.00,,,0.00,WUHU216HW,2013-01-10 12:53:00,
2013-01-10 04:58:00,40.1,33.0,30.05,SSW,203,0.0,0.0,76,0.00,,,0.00,WUHU216HW,2013-01-10 12:58:00,
2013-01-10 05:03:00,40.1,33.0,30.05,South,180,0.0,0.0,76,0.00,,,0.00,WUHU216HW,2013-01-10 13:03:00,
2013-01-10 05:08:00,40.1,33.0,30.06,South,180,0.0,0.0,76,0.00,,,0.00,WUHU216HW,2013-01-10 13:08:00,
2013-01-10 05:13:00,40.1,33.0,30.06,SSW,203,0.0,0.0,76,0.00,,,0.00,WUHU216HW,2013-01-10 13:13:00,
2013-01-10 05:19:00,40.1,33.0,30.06,SSW,203,0.0,0.0,76,0.00,,,0.00,WUHU216HW,2013-01-10 13:19:00,
2013-01-10 05:24:00,40.1,33.0,30.06,SSW,203,0.0,0.0,76,0.00,,,0.00,WUHU216HW,2013-01-10 13:24:00,
2013-01-10 05:29:00,40.1,33.0,30.06,SSW,203,0.0,0.0,76,0.00,,,0.00,WUHU216HW,2013-01-10 13:29:00,
2013-01-10 05:34:00,39.9,32.9,30.06,SSW,203,0.0,0.0,76,0.00,,,0.00,WUHU216HW,2013-01-10 13:34:00,
2013-01-10 05:39:00,40.1,33.0,30.06,SSW,203,0.0,0.0,76,0.00,,,0.00,WUHU216HW,2013-01-10 13:39:00,
2013-01-10 05:44:00,39.9,32.9,30.06,SSW,203,0.0,0.0,76,0.00,,,0.00,WUHU216HW,2013-01-10 13:44:00,
2013-01-10 05:49:00,39.9,32.9,30.06,SSW,203,0.0,0.0,76,0.00,,,0.00,WUHU216HW,2013-01-10 13:49:00,
2013-01-10 05:54:00,39.9,32.9,30.06,SSW,203,0.0,0.0,76,0.00,,,0.00,WUHU216HW,2013-01-10 13:54:00,
2013-01-10 05:59:00,39.9,32.9,30.06,SSW,203,0.0,0.0,76,0.00,,,0.00,WUHU216HW,2013-01-10 13:59:00,
2013-01-10 06:04:00,39.9,32.9,30.06,SSW,203,0.0,0.0,76,0.00,,,0.00,WUHU216HW,2013-01-10 14:04:00,
2013-01-10 06:09:00,39.7,33.0,30.06,SSW,203,0.0,0.0,77,0.00,,,0.00,WUHU216HW,2013-01-10 14:09:00,
2013-01-10 06:15:00,39.7,33.0,30.06,SSW,203,0.0,0.0,77,0.00,,,0.00,WUHU216HW,2013-01-10 14:15:00,
2013-01-10 06:20:00,39.7,33.0,30.06,SSW,203,0.0,0.0,77,0.00,,,0.00,WUHU216HW,2013-01-10 14:20:00,
2013-01-10 06:25:00,39.7,33.0,30.06,SSW,203,0.0,0.0,77,0.00,,,0.00,WUHU216HW,2013-01-10 14:25:00,
2013-01-10 06:30:00,39.5,32.9,30.06,SSW,203,0.0,0.0,77,0.00,,,0.00,WUHU216HW,2013-01-10 14:30:00,
2013-01-10 06:35:00,39.5,32.7,30.06,SSW,203,0.0,0.6,77,0.00,,,0.00,WUHU216HW,2013-01-10 14:35:00,
2013-01-10 06:40:00,39.3,32.7,30.06,SSW,203,0.0,0.6,77,0.00,,,0.00,WUHU216HW,2013-01-10 14:40:00,
2013-01-10 06:45:00,39.3,32.7,30.06,SSW,203,0.0,0.0,77,0.00,,,0.00,WUHU216HW,2013-01-10 14:45:00,
2013-01-10 06:50:00,39.3,32.7,30.07,SSW,203,0.0,0.0,77,0.00,,,0.00,WUHU216HW,2013-01-10 14:50:00,
2013-01-10 06:55:00,39.3,32.7,30.07,SSW,203,0.0,0.0,77,0.00,,,0.00,WUHU216HW,2013-01-10 14:55:00,
2013-01-10 07:00:00,39.3,32.7,30.08,SSW,203,0.0,0.0,77,0.00,,,0.00,WUHU216HW,2013-01-10 15:00:00,
2013-01-10 07:05:00,39.3,32.7,30.08,SSW,203,0.0,0.0,77,0.00,,,0.00,WUHU216HW,2013-01-10 15:05:00,
2013-01-10 07:10:00,39.5,32.9,30.08,SSW,203,0.0,0.0,77,0.00,,,0.00,WUHU216HW,2013-01-10 15:10:00,
2013-01-10 07:15:00,39.5,32.9,30.08,SSW,203,0.0,0.0,77,0.00,,,0.00,WUHU216HW,2013-01-10 15:15:00,
2013-01-10 07:21:00,39.3,32.7,30.08,SSW,203,0.0,0.0,77,0.00,,,0.00,WUHU216HW,2013-01-10 15:21:00,
2013-01-10 07:26:00,39.3,32.7,30.08,SSW,203,0.0,0.0,77,0.00,,,0.00,WUHU216HW,2013-01-10 15:26:00,
2013-01-10 07:31:00,39.3,32.7,30.08,SSW,203,0.0,0.0,77,0.00,,,0.00,WUHU216HW,2013-01-10 15:31:00,
2013-01-10 07:36:00,39.3,32.7,30.08,SSW,203,0.0,0.0,77,0.00,,,0.00,WUHU216HW,2013-01-10 15:36:00,
2013-01-10 07:41:00,39.3,32.7,30.08,SSW,203,0.0,0.0,77,0.00,,,0.00,WUHU216HW,2013-01-10 15:41:00,
2013-01-10 07:46:00,39.3,32.7,30.08,SSW,203,0.0,0.0,77,0.00,,,0.00,WUHU216HW,2013-01-10 15:46:00,
2013-01-10 07:51:00,39.3,32.7,30.09,SSW,203,0.0,0.0,77,0.00,,,0.00,WUHU216HW,2013-01-10 15:51:00,
2013-01-10 07:56:00,39.3,32.7,30.09,SSW,203,0.0,0.0,77,0.00,,,0.00,WUHU216HW,2013-01-10 15:56:00,
2013-01-10 08:01:00,39.3,33.0,30.09,SSW,203,0.0,0.0,78,0.00,,,0.00,WUHU216HW,2013-01-10 16:01:00,
2013-01-10 08:06:00,39.3,33.0,30.09,SSW,203,0.0,0.0,78,0.00,,,0.00,WUHU216HW,2013-01-10 16:06:00,
2013-01-10 08:11:00,39.3,33.0,30.09,SSW,203,0.0,0.0,78,0.00,,,0.00,WUHU216HW,2013-01-10 16:11:00,
2013-01-10 08:17:00,39.3,33.0,30.09,SSW,203,0.0,0.0,78,0.00,,,0.00,WUHU216HW,2013-01-10 16:17:00,
2013-01-10 08:22:00,39.5,33.2,30.09,SSW,203,0.0,0.0,78,0.00,,,0.00,WUHU216HW,2013-01-10 16:22:00,
2013-01-10 08:27:00,39.7,33.4,30.09,SSW,203,0.0,0.0,78,0.00,,,0.00,WUHU216HW,2013-01-10 16:27:00,
2013-01-10 08:32:00,39.9,33.5,30.09,SSW,203,0.0,0.0,78,0.00,,,0.00,WUHU216HW,2013-01-10 16:32:00,
2013-01-10 08:37:00,40.1,33.7,30.10,SSW,203,0.0,0.0,78,0.00,,,0.00,WUHU216HW,2013-01-10 16:37:00,
2013-01-10 08:42:00,40.2,33.9,30.10,South,180,0.0,0.0,78,0.00,,,0.00,WUHU216HW,2013-01-10 16:42:00,
2013-01-10 08:47:00,40.6,34.2,30.10,SSW,203,0.0,0.0,78,0.00,,,0.00,WUHU216HW,2013-01-10 16:47:00,
2013-01-10 08:52:00,40.8,34.0,30.10,SSW,203,0.0,0.8,77,0.00,,,0.00,WUHU216HW,2013-01-10 16:52:00,
2013-01-10 08:57:00,40.8,34.0,30.10,SSW,203,0.0,0.8,77,0.00,,,0.00,WUHU216HW,2013-01-10 16:57:00,
2013-01-10 09:02:00,41.0,34.2,30.10,West,270,0.0,0.0,77,0.00,,,0.00,WUHU216HW,2013-01-10 17:02:00,
2013-01-10 09:07:00,41.1,34.6,30.09,West,270,0.0,0.6,77,0.00,,,0.00,WUHU216HW,2013-01-10 17:07:00,
2013-01-10 09:12:00,41.5,34.8,30.10,SW,225,0.0,0.6,77,0.00,,,0.00,WUHU216HW,2013-01-10 17:12:00,
2013-01-10 09:17:00,41.7,34.6,30.10,NW,315,2.2,2.2,76,0.00,,,0.00,WUHU216HW,2013-01-10 17:17:00,
2013-01-10 09:22:00,41.9,34.3,30.10,WSW,248,0.0,2.2,75,0.00,,,0.00,WUHU216HW,2013-01-10 17:22:00,
2013-01-10 09:27:00,42.0,34.7,30.10,NNW,338,0.0,2.0,75,0.00,,,0.00,WUHU216HW,2013-01-10 17:27:00,
2013-01-10 09:33:00,42.4,34.7,30.10,South,180,0.0,1.5,74,0.00,,,0.00,WUHU216HW,2013-01-10 17:33:00,
2013-01-10 09:38:00,42.4,34.7,30.10,WNW,293,0.0,1.5,74,0.00,,,0.00,WUHU216HW,2013-01-10 17:38:00,
2013-01-10 09:43:00,42.6,34.9,30.10,SSW,203,0.0,1.7,74,0.00,,,0.00,WUHU216HW,2013-01-10 17:43:00,
2013-01-10 09:48:00,42.9,35.2,30.10,SW,225,0.0,2.9,74,0.00,,,0.00,WUHU216HW,2013-01-10 17:48:00,
2013-01-10 09:53:00,42.9,34.9,30.10,SSW,203,0.0,2.9,73,0.00,,,0.00,WUHU216HW,2013-01-10 17:53:00,
2013-01-10 09:58:00,43.1,35.0,30.10,WNW,293,0.2,0.2,73,0.00,,,0.00,WUHU216HW,2013-01-10 17:58:00,
2013-01-10 10:03:00,43.3,34.9,30.10,WSW,248,0.0,0.8,72,0.00,,,0.00,WUHU216HW,2013-01-10 18:03:00,
2013-01-10 10:08:00,43.5,35.0,30.10,East,90,0.0,0.8,72,0.00,,,0.00,WUHU216HW,2013-01-10 18:08:00,
2013-01-10 10:13:00,43.7,34.9,30.10,ESE,113,0.0,0.0,71,0.00,,,0.00,WUHU216HW,2013-01-10 18:13:00,
2013-01-10 10:18:00,44.2,35.4,30.10,NNE,23,0.0,0.8,71,0.00,,,0.00,WUHU216HW,2013-01-10 18:18:00,
2013-01-10 10:23:00,44.4,35.5,30.10,West,270,1.1,1.1,71,0.00,,,0.00,WUHU216HW,2013-01-10 18:23:00,
2013-01-10 10:28:00,44.6,35.4,30.10,West,270,0.0,1.1,70,0.00,,,0.00,WUHU216HW,2013-01-10 18:28:00,
2013-01-10 10:34:00,44.7,35.6,30.09,SSW,203,1.7,1.7,70,0.00,,,0.00,WUHU216HW,2013-01-10 18:34:00,
2013-01-10 10:39:00,44.9,35.7,30.09,SSW,203,0.0,1.7,70,0.00,,,0.00,WUHU216HW,2013-01-10 18:39:00,
2013-01-10 10:44:00,45.1,35.5,30.09,West,270,0.6,0.6,69,0.00,,,0.00,WUHU216HW,2013-01-10 18:44:00,
2013-01-10 10:49:00,45.3,35.3,30.10,WNW,293,0.0,4.0,68,0.00,,,0.00,WUHU216HW,2013-01-10 18:49:00,
2013-01-10 10:54:00,45.5,35.5,30.09,WNW,293,0.0,4.0,68,0.00,,,0.00,WUHU216HW,2013-01-10 18:54:00,
2013-01-10 10:59:00,45.6,35.3,30.09,East,90,2.9,3.1,67,0.00,,,0.00,WUHU216HW,2013-01-10 18:59:00,
2013-01-10 11:04:00,46.0,35.6,30.09,West,270,2.4,3.5,67,0.00,,,0.00,WUHU216HW,2013-01-10 19:04:00,
2013-01-10 11:09:00,46.2,35.8,30.09,WSW,248,0.0,3.5,67,0.00,,,0.00,WUHU216HW,2013-01-10 19:09:00,
2013-01-10 11:14:00,46.5,36.1,30.09,SW,225,1.1,3.5,67,0.00,,,0.00,WUHU216HW,2013-01-10 19:14:00,
2013-01-10 11:19:00,46.7,35.9,30.09,WNW,293,0.0,3.5,66,0.00,,,0.00,WUHU216HW,2013-01-10 19:19:00,
2013-01-10 11:25:00,46.9,36.1,30.09,WSW,248,0.0,2.2,66,0.00,,,0.00,WUHU216HW,2013-01-10 19:25:00,
2013-01-10 11:30:00,47.1,35.9,30.09,South,180,2.2,2.2,65,0.00,,,0.00,WUHU216HW,2013-01-10 19:30:00,
2013-01-10 11:35:00,47.3,36.0,30.09,WNW,293,0.0,2.2,65,0.00,,,0.00,WUHU216HW,2013-01-10 19:35:00,
2013-01-10 11:40:00,47.4,35.8,30.09,West,270,1.3,1.3,64,0.00,,,0.00,WUHU216HW,2013-01-10 19:40:00,
2013-01-10 11:45:00,47.6,36.0,30.08,SE,135,0.0,2.0,64,0.00,,,0.00,WUHU216HW,2013-01-10 19:45:00,
2013-01-10 11:50:00,47.8,36.2,30.08,WNW,293,0.0,2.0,64,0.00,,,0.00,WUHU216HW,2013-01-10 19:50:00,
2013-01-10 11:55:00,47.8,35.8,30.08,WNW,293,0.0,1.5,63,0.00,,,0.00,WUHU216HW,2013-01-10 19:55:00,
2013-01-10 12:00:00,48.0,36.3,30.08,West,270,0.0,1.5,64,0.00,,,0.00,WUHU216HW,2013-01-10 20:00:00,
2013-01-10 12:05:00,48.2,36.1,30.08,ESE,113,0.0,0.0,63,0.00,,,0.00,WUHU216HW,2013-01-10 20:05:00,
2013-01-10 12:10:00,48.5,36.5,30.08,WNW,293,0.0,0.0,63,0.00,,,0.00,WUHU216HW,2013-01-10 20:10:00,
2013-01-10 12:15:00,48.7,36.6,30.07,WNW,293,0.0,0.0,63,0.00,,,0.00,WUHU216HW,2013-01-10 20:15:00,
2013-01-10 12:21:00,48.9,36.8,30.07,NW,315,0.0,0.0,63,0.00,,,0.00,WUHU216HW,2013-01-10 20:21:00,
2013-01-10 12:26:00,49.1,36.6,30.07,West,270,0.0,0.0,62,0.00,,,0.00,WUHU216HW,2013-01-10 20:26:00,
2013-01-10 12:31:00,49.2,36.8,30.06,SSW,203,1.5,1.5,62,0.00,,,0.00,WUHU216HW,2013-01-10 20:31:00,
2013-01-10 12:36:00,49.2,36.8,30.07,South,180,0.0,1.5,62,0.00,,,0.00,WUHU216HW,2013-01-10 20:36:00,
2013-01-10 12:41:00,49.6,37.1,30.06,WNW,293,2.4,2.4,62,0.00,,,0.00,WUHU216HW,2013-01-10 20:41:00,
2013-01-10 12:46:00,49.8,36.8,30.06,NNW,338,0.0,2.4,61,0.00,,,0.00,WUHU216HW,2013-01-10 20:46:00,
2013-01-10 12:51:00,49.8,36.8,30.06,West,270,0.0,1.1,61,0.00,,,0.00,WUHU216HW,2013-01-10 20:51:00,
2013-01-10 12:56:00,49.8,36.8,30.06,WNW,293,0.0,1.1,61,0.00,,,0.00,WUHU216HW,2013-01-10 20:56:00,
2013-01-10 13:01:00,50.1,37.2,30.06,SE,135,0.0,0.0,61,0.00,,,0.00,WUHU216HW,2013-01-10 21:01:00,
2013-01-10 13:06:00,50.3,37.4,30.06,NNW,338,3.5,3.5,61,0.00,,,0.00,WUHU216HW,2013-01-10 21:06:00,
2013-01-10 13:11:00,50.5,37.1,30.06,SW,225,0.0,3.5,60,0.00,,,0.00,WUHU216HW,2013-01-10 21:11:00,
2013-01-10 13:16:00,50.7,37.3,30.06,NW,315,0.0,4.2,60,0.00,,,0.00,WUHU216HW,2013-01-10 21:16:00,
2013-01-10 13:21:00,50.7,36.8,30.06,ENE,68,0.0,4.2,59,0.00,,,0.00,WUHU216HW,2013-01-10 21:21:00,
2013-01-10 13:26:00,51.0,37.2,30.06,NNE,23,0.0,2.6,59,0.00,,,0.00,WUHU216HW,2013-01-10 21:26:00,
2013-01-10 13:31:00,51.0,36.7,30.06,West,270,0.0,0.0,58,0.00,,,0.00,WUHU216HW,2013-01-10 21:31:00,
2013-01-10 13:36:00,51.4,36.6,30.06,WNW,293,0.8,0.8,57,0.00,,,0.00,WUHU216HW,2013-01-10 21:36:00,
2013-01-10 13:41:00,51.4,37.0,30.06,West,270,0.0,0.8,58,0.00,,,0.00,WUHU216HW,2013-01-10 21:41:00,
2013-01-10 13:47:00,51.4,36.6,30.06,West,270,1.5,2.6,57,0.00,,,0.00,WUHU216HW,2013-01-10 21:47:00,
2013-01-10 13:52:00,51.4,36.1,30.06,West,270,1.3,2.6,56,0.00,,,0.00,WUHU216HW,2013-01-10 21:52:00,
2013-01-10 13:57:00,51.6,36.3,30.07,WSW,248,0.0,1.3,56,0.00,,,0.00,WUHU216HW,2013-01-10 21:57:00,
2013-01-10 14:02:00,51.8,36.5,30.06,WNW,293,0.0,1.3,56,0.00,,,0.00,WUHU216HW,2013-01-10 22:02:00,
2013-01-10 14:07:00,51.9,36.6,30.06,SW,225,0.6,2.0,56,0.00,,,0.00,WUHU216HW,2013-01-10 22:07:00,
2013-01-10 14:12:00,51.9,36.6,30.06,NW,315,1.3,2.0,56,0.00,,,0.00,WUHU216HW,2013-01-10 22:12:00,
2013-01-10 14:18:00,52.1,36.3,30.06,NNE,23,0.0,1.3,55,0.00,,,0.00,WUHU216HW,2013-01-10 22:18:00,
2013-01-10 14:23:00,51.9,36.2,30.06,WSW,248,0.0,2.2,55,0.00,,,0.00,WUHU216HW,2013-01-10 22:23:00,
2013-01-10 14:28:00,52.1,35.9,30.06,NW,315,0.0,2.2,54,0.00,,,0.00,WUHU216HW,2013-01-10 22:28:00,
2013-01-10 14:33:00,52.3,36.1,30.07,WNW,293,0.0,0.0,54,0.00,,,0.00,WUHU216HW,2013-01-10 22:33:00,
2013-01-10 14:38:00,52.3,36.1,30.06,North,0,0.0,1.1,54,0.00,,,0.00,WUHU216HW,2013-01-10 22:38:00,
2013-01-10 14:43:00,52.3,36.1,30.07,WNW,293,0.0,2.2,54,0.00,,,0.00,WUHU216HW,2013-01-10 22:43:00,
2013-01-10 14:48:00,52.3,35.6,30.06,ESE,113,0.0,5.1,53,0.00,,,0.00,WUHU216HW,2013-01-10 22:48:00,
2013-01-10 14:53:00,52.3,35.6,30.07,East,90,0.0,5.1,53,0.00,,,0.00,WUHU216HW,2013-01-10 22:53:00,
2013-01-10 14:58:00,52.3,35.6,30.07,East,90,0.0,0.0,53,0.00,,,0.00,WUHU216HW,2013-01-10 22:58:00,
2013-01-10 15:03:00,52.3,35.6,30.07,WNW,293,0.0,0.4,53,0.00,,,0.00,WUHU216HW,2013-01-10 23:03:00,
2013-01-10 15:08:00,52.3,35.6,30.07,WNW,293,0.0,0.4,53,0.00,,,0.00,WUHU216HW,2013-01-10 23:08:00,
2013-01-10 15:13:00,52.3,35.6,30.07,WNW,293,0.0,0.0,53,0.00,,,0.00,WUHU216HW,2013-01-10 23:13:00,
2013-01-10 15:18:00,52.1,35.9,30.07,South,180,0.0,0.0,54,0.00,,,0.00,WUHU216HW,2013-01-10 23:18:00,
2013-01-10 15:23:00,52.1,35.9,30.07,WSW,248,0.0,0.0,54,0.00,,,0.00,WUHU216HW,2013-01-10 23:23:00,
2013-01-10 15:29:00,52.3,36.1,30.07,SE,135,0.0,0.0,54,0.00,,,0.00,WUHU216HW,2013-01-10 23:29:00,
2013-01-10 15:34:00,52.3,36.1,30.07,WNW,293,0.0,0.0,54,0.00,,,0.00,WUHU216HW,2013-01-10 23:34:00,
2013-01-10 15:39:00,52.1,36.1,30.07,WNW,293,0.0,0.0,54,0.00,,,0.00,WUHU216HW,2013-01-10 23:39:00,
2013-01-10 15:44:00,52.1,35.9,30.07,NE,45,0.0,0.0,54,0.00,,,0.00,WUHU216HW,2013-01-10 23:44:00,
2013-01-10 15:49:00,52.1,35.9,30.07,WNW,293,0.0,0.0,54,0.00,,,0.00,WUHU216HW,2013-01-10 23:49:00,
2013-01-10 15:54:00,51.9,36.2,30.07,SW,225,0.4,0.4,55,0.00,,,0.00,WUHU216HW,2013-01-10 23:54:00,
2013-01-10 15:59:00,51.9,36.2,30.07,West,270,0.0,0.4,55,0.00,,,0.00,WUHU216HW,2013-01-10 23:59:00,
2013-01-10 16:04:00,51.9,36.2,30.08,WNW,293,0.0,0.4,55,0.00,,,0.00,WUHU216HW,2013-01-11 00:04:00,
2013-01-10 16:09:00,51.8,36.2,30.08,WNW,293,0.0,0.0,55,0.00,,,0.00,WUHU216HW,2013-01-11 00:09:00,
2013-01-10 16:14:00,51.9,36.2,30.08,WNW,293,0.0,0.0,55,0.00,,,0.00,WUHU216HW,2013-01-11 00:14:00,
2013-01-10 16:19:00,51.6,35.4,30.07,South,180,0.0,0.8,54,0.00,,,0.00,WUHU216HW,2013-01-11 00:19:00,
2013-01-10 16:24:00,51.8,35.4,30.07,NW,315,0.0,0.8,54,0.00,,,0.00,WUHU216HW,2013-01-11 00:24:00,
2013-01-10 16:29:00,51.6,35.4,30.08,WNW,293,0.0,0.0,54,0.00,,,0.00,WUHU216HW,2013-01-11 00:29:00,
2013-01-10 16:35:00,51.4,34.8,30.08,North,0,0.0,0.0,53,0.00,,,0.00,WUHU216HW,2013-01-11 00:35:00,
2013-01-10 16:40:00,51.4,34.8,30.07,North,0,0.0,0.0,53,0.00,,,0.00,WUHU216HW,2013-01-11 00:40:00,
2013-01-10 16:45:00,51.2,34.6,30.08,West,270,0.0,0.0,53,0.00,,,0.00,WUHU216HW,2013-01-11 00:45:00,
2013-01-10 16:50:00,50.9,34.7,30.08,WNW,293,0.0,2.2,54,0.00,,,0.00,WUHU216HW,2013-01-11 00:50:00,
2013-01-10 16:55:00,50.7,34.6,30.08,WNW,293,0.0,2.2,54,0.00,,,0.00,WUHU216HW,2013-01-11 00:55:00,
2013-01-10 17:00:00,50.5,34.4,30.08,NW,315,0.0,0.0,54,0.00,,,0.00,WUHU216HW,2013-01-11 01:00:00,
2013-01-10 17:05:00,50.3,34.7,30.08,WNW,293,0.0,0.0,55,0.00,,,0.00,WUHU216HW,2013-01-11 01:05:00,
2013-01-10 17:10:00,50.1,35.0,30.08,West,270,0.0,0.0,56,0.00,,,0.00,WUHU216HW,2013-01-11 01:10:00,
2013-01-10 17:15:00,49.8,35.1,30.08,West,270,0.0,0.0,57,0.00,,,0.00,WUHU216HW,2013-01-11 01:15:00,
2013-01-10 17:20:00,49.6,35.4,30.09,NNE,23,0.0,0.0,58,0.00,,,0.00,WUHU216HW,2013-01-11 01:20:00,
2013-01-10 17:25:00,49.2,35.5,30.09,WNW,293,0.0,0.0,59,0.00,,,0.00,WUHU216HW,2013-01-11 01:25:00,
2013-01-10 17:30:00,49.1,35.4,30.09,WSW,248,0.0,0.0,59,0.00,,,0.00,WUHU216HW,2013-01-11 01:30:00,
2013-01-10 17:35:00,48.9,35.2,30.09,WSW,248,0.0,0.0,59,0.00,,,0.00,WUHU216HW,2013-01-11 01:35:00,
2013-01-10 17:41:00,48.7,35.5,30.09,SSW,203,0.0,0.0,60,0.00,,,0.00,WUHU216HW,2013-01-11 01:41:00,
2013-01-10 17:46:00,48.7,35.5,30.10,WNW,293,0.0,0.0,60,0.00,,,0.00,WUHU216HW,2013-01-11 01:46:00,
2013-01-10 17:51:00,48.3,35.6,30.10,WNW,293,0.0,0.0,61,0.00,,,0.00,WUHU216HW,2013-01-11 01:51:00,
2013-01-10 17:56:00,48.0,35.6,30.10,WNW,293,0.0,0.0,61,0.00,,,0.00,WUHU216HW,2013-01-11 01:56:00,
2013-01-10 18:01:00,48.0,35.6,30.10,WNW,293,0.0,0.0,62,0.00,,,0.00,WUHU216HW,2013-01-11 02:01:00,
2013-01-10 18:06:00,47.8,35.4,30.10,WNW,293,0.0,0.0,62,0.00,,,0.00,WUHU216HW,2013-01-11 02:06:00,
2013-01-10 18:11:00,47.4,35.0,30.10,WNW,293,0.0,0.0,62,0.00,,,0.00,WUHU216HW,2013-01-11 02:11:00,
2013-01-10 18:16:00,47.1,34.7,30.11,NW,315,0.0,0.0,62,0.00,,,0.00,WUHU216HW,2013-01-11 02:16:00,
2013-01-10 18:21:00,46.9,34.9,30.10,NW,315,0.0,0.0,63,0.00,,,0.00,WUHU216HW,2013-01-11 02:21:00,
2013-01-10 18:26:00,46.7,34.7,30.10,NW,315,0.0,0.0,63,0.00,,,0.00,WUHU216HW,2013-01-11 02:26:00,
2013-01-10 18:31:00,46.5,34.6,30.10,SE,135,0.0,0.0,63,0.00,,,0.00,WUHU216HW,2013-01-11 02:31:00,
2013-01-10 18:36:00,46.5,34.6,30.11,NNE,23,0.0,0.0,63,0.00,,,0.00,WUHU216HW,2013-01-11 02:36:00,
2013-01-10 18:42:00,46.5,34.6,30.11,SW,225,0.0,0.0,63,0.00,,,0.00,WUHU216HW,2013-01-11 02:42:00,
2013-01-10 18:47:00,46.2,34.2,30.11,NNW,338,0.0,0.0,63,0.00,,,0.00,WUHU216HW,2013-01-11 02:47:00,
2013-01-10 18:52:00,46.2,34.2,30.11,NE,45,0.0,0.0,63,0.00,,,0.00,WUHU216HW,2013-01-11 02:52:00,
2013-01-10 18:57:00,46.0,34.1,30.11,East,90,0.0,0.0,63,0.00,,,0.00,WUHU216HW,2013-01-11 02:57:00,
2013-01-10 19:02:00,46.0,34.1,30.11,East,90,0.6,0.6,63,0.00,,,0.00,WUHU216HW,2013-01-11 03:02:00,
2013-01-10 19:07:00,45.8,33.9,30.11,SW,225,0.0,0.6,63,0.00,,,0.00,WUHU216HW,2013-01-11 03:07:00,
2013-01-10 19:12:00,45.6,34.1,30.12,West,270,0.0,0.0,64,0.00,,,0.00,WUHU216HW,2013-01-11 03:12:00,
2013-01-10 19:17:00,45.6,34.1,30.12,SSW,203,0.0,0.0,64,0.00,,,0.00,WUHU216HW,2013-01-11 03:17:00,
2013-01-10 19:22:00,45.6,34.1,30.12,SSW,203,0.0,2.2,64,0.00,,,0.00,WUHU216HW,2013-01-11 03:22:00,
2013-01-10 19:27:00,45.5,33.9,30.12,East,90,0.0,2.2,64,0.00,,,0.00,WUHU216HW,2013-01-11 03:27:00,
2013-01-10 19:32:00,45.3,33.8,30.12,WNW,293,0.4,0.4,64,0.00,,,0.00,WUHU216HW,2013-01-11 03:32:00,
2013-01-10 19:37:00,45.1,33.6,30.12,South,180,0.0,0.4,64,0.00,,,0.00,WUHU216HW,2013-01-11 03:37:00,
2013-01-10 19:43:00,45.1,33.6,30.12,NE,45,0.6,0.8,64,0.00,,,0.00,WUHU216HW,2013-01-11 03:43:00,
2013-01-10 19:48:00,45.1,33.6,30.12,WSW,248,0.0,1.5,64,0.00,,,0.00,WUHU216HW,2013-01-11 03:48:00,
2013-01-10 19:53:00,44.9,33.4,30.12,NNW,338,0.0,1.5,64,0.00,,,0.00,WUHU216HW,2013-01-11 03:53:00,
2013-01-10 19:58:00,44.9,33.4,30.12,NNE,23,0.0,0.0,64,0.00,,,0.00,WUHU216HW,2013-01-11 03:58:00,
2013-01-10 20:03:00,44.7,33.3,30.12,NNW,338,0.0,0.0,64,0.00,,,0.00,WUHU216HW,2013-01-11 04:03:00,
2013-01-10 20:08:00,44.6,33.1,30.12,ESE,113,1.1,1.1,64,0.00,,,0.00,WUHU216HW,2013-01-11 04:08:00,
2013-01-10 20:13:00,44.4,32.9,30.13,South,180,0.0,1.1,64,0.00,,,0.00,WUHU216HW,2013-01-11 04:13:00,
2013-01-10 20:18:00,44.4,32.9,30.13,SSW,203,0.0,0.0,64,0.00,,,0.00,WUHU216HW,2013-01-11 04:18:00,
2013-01-10 20:23:00,44.4,32.9,30.13,South,180,0.0,0.0,64,0.00,,,0.00,WUHU216HW,2013-01-11 04:23:00,
2013-01-10 20:28:00,44.2,32.7,30.13,SE,135,1.1,1.1,64,0.00,,,0.00,WUHU216HW,2013-01-11 04:28:00,
2013-01-10 20:33:00,44.2,32.7,30.14,SSE,158,0.0,1.5,64,0.00,,,0.00,WUHU216HW,2013-01-11 04:33:00,
2013-01-10 20:38:00,44.0,32.6,30.14,SSE,158,0.0,1.5,64,0.00,,,0.00,WUHU216HW,2013-01-11 04:38:00,
2013-01-10 20:43:00,43.8,32.4,30.14,South,180,0.0,0.0,64,0.00,,,0.00,WUHU216HW,2013-01-11 04:43:00,
2013-01-10 20:48:00,43.8,32.8,30.14,NW,315,0.0,0.0,65,0.00,,,0.00,WUHU216HW,2013-01-11 04:48:00,
2013-01-10 20:53:00,43.7,32.2,30.14,NNE,23,0.0,0.0,64,0.00,,,0.00,WUHU216HW,2013-01-11 04:53:00,
2013-01-10 20:59:00,43.7,32.2,30.14,NW,315,0.0,0.0,64,0.00,,,0.00,WUHU216HW,2013-01-11 04:59:00,
2013-01-10 21:01:00,43.7,32.2,30.14,SE,135,1.7,1.7,64,0.00,,,0.00,WUHU216HW,2013-01-11 05:01:00,
2013-01-10 21:03:00,43.5,32.1,30.14,NNW,338,0.0,1.7,64,0.00,,,0.00,WUHU216HW,2013-01-11 05:03:00,
2013-01-10 21:04:00,43.5,32.1,30.14,NNW,338,0.0,1.7,64,0.00,,,0.00,WUHU216HW,2013-01-11 05:04:00,
2013-01-10 21:09:00,43.5,32.1,30.14,ESE,113,0.0,1.7,64,0.00,,,0.00,WUHU216HW,2013-01-11 05:09:00,
2013-01-10 21:14:00,43.5,32.1,30.15,NW,315,0.0,0.0,64,0.00,,,0.00,WUHU216HW,2013-01-11 05:14:00,
2013-01-10 21:19:00,43.5,32.1,30.14,WNW,293,0.0,0.0,64,0.00,,,0.00,WUHU216HW,2013-01-11 05:19:00,
2013-01-10 21:24:00,43.5,32.1,30.15,NW,315,2.0,2.0,64,0.00,,,0.00,WUHU216HW,2013-01-11 05:24:00,
2013-01-10 21:29:00,43.3,31.9,30.15,NNW,338,0.0,2.0,64,0.00,,,0.00,WUHU216HW,2013-01-11 05:29:00,
2013-01-10 21:34:00,43.3,31.9,30.15,NE,45,0.0,2.0,64,0.00,,,0.00,WUHU216HW,2013-01-11 05:34:00,
2013-01-10 21:39:00,43.1,31.7,30.15,South,180,0.0,0.0,64,0.00,,,0.00,WUHU216HW,2013-01-11 05:39:00,
2013-01-10 21:44:00,43.1,31.7,30.15,ESE,113,0.0,0.0,64,0.00,,,0.00,WUHU216HW,2013-01-11 05:44:00,
2013-01-10 21:49:00,42.9,31.5,30.15,WNW,293,0.0,0.0,64,0.00,,,0.00,WUHU216HW,2013-01-11 05:49:00,
2013-01-10 21:54:00,42.9,31.5,30.16,South,180,0.0,0.0,64,0.00,,,0.00,WUHU216HW,2013-01-11 05:54:00,
2013-01-10 21:59:00,42.9,31.5,30.15,NNW,338,0.0,0.6,64,0.00,,,0.00,WUHU216HW,2013-01-11 05:59:00,
2013-01-10 22:04:00,42.9,31.9,30.16,WNW,293,0.0,0.6,65,0.00,,,0.00,WUHU216HW,2013-01-11 06:04:00,
2013-01-10 22:10:00,42.8,31.8,30.16,SSE,158,0.0,2.6,65,0.00,,,0.00,WUHU216HW,2013-01-11 06:10:00,
2013-01-10 22:15:00,42.9,31.8,30.16,NW,315,0.0,2.6,65,0.00,,,0.00,WUHU216HW,2013-01-11 06:15:00,
2013-01-10 22:20:00,42.6,31.6,30.16,West,270,0.0,0.0,65,0.00,,,0.00,WUHU216HW,2013-01-11 06:20:00,
2013-01-10 22:25:00,42.6,31.6,30.16,West,270,0.0,0.0,65,0.00,,,0.00,WUHU216HW,2013-01-11 06:25:00,
2013-01-10 22:30:00,42.6,31.6,30.16,South,180,0.0,0.0,65,0.00,,,0.00,WUHU216HW,2013-01-11 06:30:00,
2013-01-10 22:35:00,42.6,31.6,30.16,NNE,23,0.0,0.0,65,0.00,,,0.00,WUHU216HW,2013-01-11 06:35:00,
2013-01-10 22:40:00,42.6,31.6,30.16,North,0,0.0,0.0,65,0.00,,,0.00,WUHU216HW,2013-01-11 06:40:00,
2013-01-10 22:45:00,42.6,32.0,30.16,South,180,0.8,0.8,66,0.00,,,0.00,WUHU216HW,2013-01-11 06:45:00,
2013-01-10 22:50:00,42.6,32.0,30.16,South,180,0.0,0.8,66,0.00,,,0.00,WUHU216HW,2013-01-11 06:50:00,
2013-01-10 22:55:00,42.4,31.8,30.16,East,90,0.0,0.8,66,0.00,,,0.00,WUHU216HW,2013-01-11 06:55:00,
2013-01-10 23:00:00,42.4,31.8,30.16,SW,225,0.0,0.0,66,0.00,,,0.00,WUHU216HW,2013-01-11 07:00:00,
2013-01-10 23:05:00,42.4,31.8,30.16,NNW,338,0.0,0.0,66,0.00,,,0.00,WUHU216HW,2013-01-11 07:05:00,
2013-01-10 23:11:00,42.0,31.5,30.16,South,180,0.0,0.0,66,0.00,,,0.00,WUHU216HW,2013-01-11 07:11:00,
2013-01-10 23:16:00,42.0,31.5,30.16,WSW,248,0.0,0.0,66,0.00,,,0.00,WUHU216HW,2013-01-11 07:16:00,
2013-01-10 23:21:00,42.0,31.5,30.16,SW,225,0.0,0.4,66,0.00,,,0.00,WUHU216HW,2013-01-11 07:21:00,
2013-01-10 23:26:00,42.0,31.5,30.16,WNW,293,0.0,0.4,66,0.00,,,0.00,WUHU216HW,2013-01-11 07:26:00,
2013-01-10 23:31:00,42.0,31.5,30.16,West,270,0.0,0.8,66,0.00,,,0.00,WUHU216HW,2013-01-11 07:31:00,
2013-01-10 23:36:00,42.0,31.5,30.16,SSE,158,0.6,0.8,66,0.00,,,0.00,WUHU216HW,2013-01-11 07:36:00,
2013-01-10 23:41:00,42.0,31.5,30.16,NW,315,0.0,0.6,66,0.00,,,0.00,WUHU216HW,2013-01-11 07:41:00,
2013-01-10 23:46:00,42.0,31.5,30.16,SSW,203,0.0,0.6,66,0.00,,,0.00,WUHU216HW,2013-01-11 07:46:00,
2013-01-10 23:51:00,42.0,31.5,30.16,SSW,203,0.0,0.0,66,0.00,,,0.00,WUHU216HW,2013-01-11 07:51:00,
2013-01-10 23:56:00,42.0,31.5,30.16,SE,135,0.0,0.0,66,0.00,,,0.00,WUHU216HW,2013-01-11 07:56:00,